logo tempoitalia

Diretta Meteo Kimberley, Sud Africalunedì 31 agosto ore 07:00

Mappa
Sereno 14 °C Sereno 24 Ore: T.min 11 T.max 28
Ponente Nord Km/h 3.7 Punto di rugiada: 6 °C Umidità: 58% Visibilità: 10 Km
Il sole sorge alle: 06:36 Il sole tramonta alle: 18:06
31 Agosto 2026 07:00 tempo osservato: Sereno Sereno 14 58 1024 vento: Nord N 3.7
31 Agosto 2026 06:00 tempo osservato: Molto Nuvoloso Molto Nuvoloso 16 44 1025 vento: Nord O 22.2
31 Agosto 2026 05:00 tempo osservato: Sereno Sereno 16 44 1022 vento: Nord O 9.3
31 Agosto 2026 04:00 tempo osservato: Sereno Sereno 15 47 1022 vento: Nord O/NO 11.1
31 Agosto 2026 03:00 tempo osservato: Sereno Sereno 11 61 1022 vento: Nord N 5.5
31 Agosto 2026 02:00 tempo osservato: Sereno Sereno 11 61 1022 vento: Nord N 5.5
31 Agosto 2026 01:00 tempo osservato: Sereno Sereno 12 54 1022 vento: Nord N 7.4
31 Agosto 2026 00:00 tempo osservato: Sereno Sereno 12 54 1022 vento: Nord N 1.8
30 Agosto 2026 23:00 tempo osservato: Sereno Sereno 14 47 1022 vento: Nord N 3.7
30 Agosto 2026 22:00 tempo osservato: Sereno Sereno 15 44 1022 vento: Nord O 9.3
30 Agosto 2026 21:00 tempo osservato: Sereno Sereno 18 39 1022 vento: Nord O/NO 13
30 Agosto 2026 20:00 tempo osservato: Sereno Sereno 19 37 1021 vento: Nord N 13
30 Agosto 2026 19:00 tempo osservato: Sereno Sereno 19 37 1020 vento: Nord N 13
30 Agosto 2026 18:00 tempo osservato: Sereno Sereno 22 30 1020 vento: Nord N 11.1
30 Agosto 2026 17:00 tempo osservato: Sereno Sereno 26 22 1019 vento: Nord N/NO 11.1
30 Agosto 2026 16:00 tempo osservato: Sereno Sereno 27 21 1019 vento: Nord N/NO 22.2
30 Agosto 2026 15:00 tempo osservato: Sereno Sereno 28 21 1019 vento: Nord N/NO 16.7
30 Agosto 2026 14:00 tempo osservato: Sereno Sereno 27 22 1020 vento: Nord N/NO 25.9
30 Agosto 2026 13:00 tempo osservato: Sereno Sereno 25 25 1021 vento: Nord N/NO 31.5
30 Agosto 2026 12:00 tempo osservato: Sereno Sereno 24 27 1021 vento: Nord N/NO 31.5
30 Agosto 2026 11:00 tempo osservato: Sereno Sereno 23 28 1022 vento: Nord N 33.3
30 Agosto 2026 10:00 tempo osservato: Sereno Sereno 20 32 1022 vento: Nord N 35.2
30 Agosto 2026 09:27 tempo osservato: Sereno Sereno 18 36 1022 vento: Nord N 29.6
30 Agosto 2026 09:00 tempo osservato: Sereno Sereno 16 38 1022 vento: Nord N 27.8
30 Agosto 2026 08:00 tempo osservato: Sereno Sereno 14 44 1022 vento: Nord N 24